sensor_id;sensor_type;location;lat;lon;timestamp;pressure;altitude;pressure_sealevel;temperature;humidity
63654;BME280;49809;47.418;19.080;2023-08-08T01:15:23;100510.16;;;13.67;82.85
63654;BME280;49809;47.418;19.080;2023-08-08T01:19:58;100512.03;;;13.67;83.66
63654;BME280;49809;47.418;19.080;2023-08-08T01:24:38;100510.41;;;13.61;84.04
63654;BME280;49809;47.418;19.080;2023-08-08T01:29:16;100515.47;;;13.57;83.76
63654;BME280;49809;47.418;19.080;2023-08-08T01:33:04;100511.50;;;13.55;84.45
63654;BME280;49809;47.418;19.080;2023-08-08T01:58:46;100528.25;;;13.50;85.71
63654;BME280;49809;47.418;19.080;2023-08-08T02:27:00;100531.16;;;13.38;87.85
63654;BME280;49809;47.418;19.080;2023-08-08T03:11:03;100559.22;;;13.09;89.18
63654;BME280;49809;47.418;19.080;2023-08-08T03:15:24;100559.22;;;13.09;89.92
63654;BME280;49809;47.418;19.080;2023-08-08T03:19:14;100569.31;;;13.02;89.73
63654;BME280;49809;47.418;19.080;2023-08-08T03:23:16;100568.19;;;12.93;90.78
63654;BME280;49809;47.418;19.080;2023-08-08T03:32:19;100584.84;;;12.68;93.08
63654;BME280;49809;47.418;19.080;2023-08-08T03:35:30;100582.66;;;12.60;93.63
63654;BME280;49809;47.418;19.080;2023-08-08T03:45:51;100599.25;;;12.40;95.54
63654;BME280;49809;47.418;19.080;2023-08-08T03:50:19;100598.22;;;12.41;96.10
63654;BME280;49809;47.418;19.080;2023-08-08T03:54:20;100606.19;;;12.41;96.88
63654;BME280;49809;47.418;19.080;2023-08-08T03:58:19;100608.78;;;12.36;96.70
63654;BME280;49809;47.418;19.080;2023-08-08T04:02:54;100616.22;;;12.34;96.84
63654;BME280;49809;47.418;19.080;2023-08-08T04:11:19;100623.13;;;12.35;97.43
63654;BME280;49809;47.418;19.080;2023-08-08T04:15:17;100627.66;;;12.40;96.49
63654;BME280;49809;47.418;19.080;2023-08-08T06:10:02;100700.16;;;15.82;74.68
63654;BME280;49809;47.418;19.080;2023-08-08T06:19:37;100685.88;;;16.02;72.46
63654;BME280;49809;47.418;19.080;2023-08-08T06:26:22;100682.69;;;16.34;70.71
63654;BME280;49809;47.418;19.080;2023-08-08T06:29:23;100693.22;;;16.54;70.09
63654;BME280;49809;47.418;19.080;2023-08-08T06:32:26;100699.62;;;16.58;71.44
63654;BME280;49809;47.418;19.080;2023-08-08T06:35:30;100696.75;;;16.78;68.70
63654;BME280;49809;47.418;19.080;2023-08-08T06:38:49;100692.72;;;16.81;69.16
63654;BME280;49809;47.418;19.080;2023-08-08T06:42:08;100689.19;;;17.09;67.76
63654;BME280;49809;47.418;19.080;2023-08-08T06:45:44;100696.78;;;17.26;67.91
63654;BME280;49809;47.418;19.080;2023-08-08T06:49:21;100692.31;;;17.40;66.79
63654;BME280;49809;47.418;19.080;2023-08-08T06:53:00;100694.81;;;17.55;66.13
63654;BME280;49809;47.418;19.080;2023-08-08T06:56:28;100702.03;;;17.78;64.97
63654;BME280;49809;47.418;19.080;2023-08-08T06:59:47;100695.44;;;18.08;64.10
63654;BME280;49809;47.418;19.080;2023-08-08T07:03:29;100697.63;;;18.39;63.39
63654;BME280;49809;47.418;19.080;2023-08-08T07:06:49;100698.09;;;18.59;61.53
63654;BME280;49809;47.418;19.080;2023-08-08T07:10:18;100695.25;;;18.70;61.94
63654;BME280;49809;47.418;19.080;2023-08-08T07:13:55;100700.75;;;18.92;60.20
63654;BME280;49809;47.418;19.080;2023-08-08T07:17:35;100703.19;;;18.75;59.84
63654;BME280;49809;47.418;19.080;2023-08-08T07:21:07;100699.44;;;18.89;58.21
63654;BME280;49809;47.418;19.080;2023-08-08T07:24:36;100713.00;;;19.25;59.34
63654;BME280;49809;47.418;19.080;2023-08-08T07:28:13;100707.44;;;19.35;59.24
63654;BME280;49809;47.418;19.080;2023-08-08T07:31:52;100716.31;;;19.85;55.67
63654;BME280;49809;47.418;19.080;2023-08-08T07:35:24;100708.75;;;20.23;57.00
63654;BME280;49809;47.418;19.080;2023-08-08T07:39:02;100706.62;;;20.56;54.13
63654;BME280;49809;47.418;19.080;2023-08-08T07:42:40;100720.00;;;20.48;54.39
63654;BME280;49809;47.418;19.080;2023-08-08T07:46:25;100711.50;;;20.85;53.44
63654;BME280;49809;47.418;19.080;2023-08-08T07:58:38;100720.94;;;21.05;50.83
63654;BME280;49809;47.418;19.080;2023-08-08T08:02:26;100710.03;;;21.58;49.00
63654;BME280;49809;47.418;19.080;2023-08-08T08:06:38;100720.88;;;22.18;48.41
63654;BME280;49809;47.418;19.080;2023-08-08T08:28:47;100701.50;;;23.85;42.57
63654;BME280;49809;47.418;19.080;2023-08-08T08:33:01;100706.94;;;24.84;40.55
63654;BME280;49809;47.418;19.080;2023-08-08T08:41:12;100708.59;;;23.10;43.35
63654;BME280;49809;47.418;19.080;2023-08-08T08:44:52;100707.59;;;24.36;40.74
63654;BME280;49809;47.418;19.080;2023-08-08T08:49:28;100706.25;;;23.67;41.74
63654;BME280;49809;47.418;19.080;2023-08-08T08:52:52;100714.56;;;24.04;40.92
63654;BME280;49809;47.418;19.080;2023-08-08T08:56:12;100716.16;;;24.05;41.02
63654;BME280;49809;47.418;19.080;2023-08-08T09:00:00;100710.16;;;24.53;39.94
63654;BME280;49809;47.418;19.080;2023-08-08T09:04:36;100706.00;;;24.67;39.35
63654;BME280;49809;47.418;19.080;2023-08-08T09:13:56;100711.19;;;24.07;39.89
63654;BME280;49809;47.418;19.080;2023-08-08T09:22:50;100712.91;;;25.86;37.97
63654;BME280;49809;47.418;19.080;2023-08-08T09:26:55;100711.66;;;25.84;36.40
63654;BME280;49809;47.418;19.080;2023-08-08T09:30:35;100736.22;;;25.15;37.60
63654;BME280;49809;47.418;19.080;2023-08-08T09:34:17;100738.81;;;25.47;37.02
63654;BME280;49809;47.418;19.080;2023-08-08T09:45:51;100737.59;;;25.57;35.99
63654;BME280;49809;47.418;19.080;2023-08-08T09:50:08;100737.72;;;25.61;36.49
63654;BME280;49809;47.418;19.080;2023-08-08T10:24:19;100719.28;;;27.75;33.49
63654;BME280;49809;47.418;19.080;2023-08-08T10:33:18;100716.47;;;25.63;36.95
63654;BME280;49809;47.418;19.080;2023-08-08T11:00:50;100693.44;;;28.04;33.20
63654;BME280;49809;47.418;19.080;2023-08-08T11:04:44;100689.50;;;26.97;36.38
63654;BME280;49809;47.418;19.080;2023-08-08T11:13:32;100705.19;;;25.61;36.21
63654;BME280;49809;47.418;19.080;2023-08-08T11:25:30;100708.25;;;27.02;33.51
63654;BME280;49809;47.418;19.080;2023-08-08T11:29:30;100696.97;;;28.24;32.86
63654;BME280;49809;47.418;19.080;2023-08-08T11:33:55;100705.34;;;26.48;35.96
63654;BME280;49809;47.418;19.080;2023-08-08T12:09:23;100673.00;;;25.87;33.21
63654;BME280;49809;47.418;19.080;2023-08-08T12:13:32;100669.91;;;25.48;34.73
63654;BME280;49809;47.418;19.080;2023-08-08T12:21:12;100661.41;;;26.89;32.93
63654;BME280;49809;47.418;19.080;2023-08-08T13:23:00;100639.47;;;24.54;34.85
63654;BME280;49809;47.418;19.080;2023-08-08T13:26:38;100626.38;;;24.44;36.39
63654;BME280;49809;47.418;19.080;2023-08-08T16:04:11;100587.75;;;23.57;38.97
63654;BME280;49809;47.418;19.080;2023-08-08T16:07:38;100593.50;;;23.89;38.87
63654;BME280;49809;47.418;19.080;2023-08-08T16:11:28;100581.69;;;23.93;37.24
63654;BME280;49809;47.418;19.080;2023-08-08T16:15:08;100586.91;;;23.77;39.22
63654;BME280;49809;47.418;19.080;2023-08-08T16:18:44;100580.69;;;23.98;38.09
63654;BME280;49809;47.418;19.080;2023-08-08T19:22:10;100655.34;;;16.13;84.02
63654;BME280;49809;47.418;19.080;2023-08-08T19:25:46;100649.81;;;16.04;84.44
63654;BME280;49809;47.418;19.080;2023-08-08T19:56:10;100658.41;;;15.52;87.37
63654;BME280;49809;47.418;19.080;2023-08-08T20:00:01;100659.22;;;15.43;89.45
63654;BME280;49809;47.418;19.080;2023-08-08T20:03:38;100656.88;;;15.31;89.60
63654;BME280;49809;47.418;19.080;2023-08-08T20:07:23;100660.13;;;15.23;90.19
63654;BME280;49809;47.418;19.080;2023-08-08T20:56:31;100672.78;;;14.21;95.64
63654;BME280;49809;47.418;19.080;2023-08-08T21:00:08;100673.03;;;14.05;96.39
63654;BME280;49809;47.418;19.080;2023-08-08T21:03:50;100672.22;;;13.99;96.97
63654;BME280;49809;47.418;19.080;2023-08-08T21:07:39;100673.81;;;13.95;97.31
63654;BME280;49809;47.418;19.080;2023-08-08T21:14:55;100674.34;;;13.92;98.35
63654;BME280;49809;47.418;19.080;2023-08-08T22:30:23;100661.19;;;12.93;100.00
63654;BME280;49809;47.418;19.080;2023-08-08T22:33:58;100669.16;;;12.93;100.00
63654;BME280;49809;47.418;19.080;2023-08-08T22:37:41;100669.66;;;12.85;100.00
